createdAt,value
2023-03-03T00:03:34.237Z,83.84
2023-03-03T00:08:34.665Z,83.12
2023-03-03T00:13:33.896Z,83.47
2023-03-03T00:18:34.020Z,83.89
2023-03-03T00:23:33.852Z,83.12
2023-03-03T00:28:33.839Z,83.12
2023-03-03T00:33:33.775Z,82.60
2023-03-03T00:38:33.792Z,82.15
2023-03-03T00:43:33.649Z,81.32
2023-03-03T00:48:33.636Z,83.82
2023-03-03T00:53:33.406Z,83.53
2023-03-03T00:58:36.513Z,82.84
2023-03-03T01:03:33.281Z,83.51
2023-03-03T01:08:33.351Z,82.99
2023-03-03T01:13:33.131Z,82.84
2023-03-03T01:18:33.219Z,82.99
2023-03-03T01:23:32.996Z,82.01
2023-03-03T01:28:33.118Z,81.70
2023-03-03T01:33:33.028Z,83.44
2023-03-03T01:38:32.845Z,82.05
2023-03-03T01:43:32.871Z,83.58
2023-03-03T01:48:32.749Z,84.00
2023-03-03T01:53:32.595Z,83.27
2023-03-03T01:58:35.682Z,83.27
2023-03-03T02:03:32.583Z,83.83
2023-03-03T02:08:32.432Z,83.13
2023-03-03T02:13:32.412Z,82.71
2023-03-03T02:18:32.378Z,82.61
2023-03-03T02:23:32.246Z,82.09
2023-03-03T02:28:32.253Z,82.61
2023-03-03T02:33:32.138Z,82.23
2023-03-03T02:38:32.242Z,82.09
2023-03-03T02:43:31.994Z,82.20
2023-03-03T02:48:32.093Z,81.15
2023-03-03T02:53:31.880Z,82.03
2023-03-03T02:58:42.638Z,83.52
2023-03-03T03:03:39.322Z,83.97
2023-03-03T03:08:39.096Z,83.62
2023-03-03T03:13:31.665Z,83.52
2023-03-03T03:18:31.600Z,84.67
2023-03-03T03:23:31.650Z,84.18
2023-03-03T03:28:31.632Z,84.33
2023-03-03T03:33:31.346Z,84.95
2023-03-03T03:38:31.330Z,83.39
2023-03-03T03:43:31.200Z,84.67
2023-03-03T03:48:31.220Z,85.36
2023-03-03T03:53:31.117Z,84.08
2023-03-03T03:58:34.045Z,83.42
2023-03-03T04:03:31.033Z,84.43
2023-03-03T04:08:30.968Z,84.08
2023-03-03T04:13:30.901Z,84.28
2023-03-03T04:18:30.918Z,83.42
2023-03-03T04:23:30.710Z,83.06
2023-03-03T04:28:30.853Z,82.51
2023-03-03T04:33:30.594Z,82.65
2023-03-03T04:38:31.186Z,82.96
2023-03-03T04:43:30.547Z,82.44
2023-03-03T04:48:30.463Z,82.75
2023-03-03T04:53:30.541Z,83.45
2023-03-03T04:58:33.342Z,83.66
2023-03-03T05:03:30.232Z,85.34
2023-03-03T05:08:30.300Z,84.57
2023-03-03T05:13:30.073Z,83.76
2023-03-03T05:18:30.114Z,83.04
2023-03-03T05:23:29.940Z,83.87
2023-03-03T05:28:29.920Z,83.45
2023-03-03T05:33:29.947Z,83.07
2023-03-03T05:38:29.989Z,83.25
2023-03-03T05:43:29.725Z,83.57
2023-03-03T05:48:29.793Z,83.36
2023-03-03T05:53:29.549Z,83.67
2023-03-03T05:58:32.674Z,82.14
2023-03-03T06:03:29.480Z,81.96
2023-03-03T06:10:48.624Z,82.28
2023-03-03T06:15:48.504Z,82.14
2023-03-03T06:20:48.415Z,81.09
2023-03-03T06:25:48.481Z,80.99
2023-03-03T06:30:48.353Z,80.71
2023-03-03T06:35:48.260Z,81.34
2023-03-03T06:40:48.235Z,80.02
2023-03-03T06:45:48.248Z,79.94
2023-03-03T06:50:48.104Z,79.57
2023-03-03T06:55:47.909Z,80.92
2023-03-03T07:00:51.832Z,80.02
2023-03-03T07:05:47.876Z,80.99
2023-03-03T07:10:47.932Z,79.28
2023-03-03T07:15:47.653Z,79.77
2023-03-03T07:20:48.793Z,79.77
2023-03-03T07:25:47.526Z,79.87
2023-03-03T07:30:47.554Z,80.33
2023-03-03T07:35:47.488Z,80.12
2023-03-03T07:40:47.403Z,80.33
2023-03-03T07:45:47.320Z,79.83
2023-03-03T07:50:47.250Z,79.07
2023-03-03T07:55:47.186Z,79.70
2023-03-03T08:00:50.580Z,78.83
2023-03-03T08:05:47.314Z,80.09
2023-03-03T08:10:47.115Z,79.32
2023-03-03T08:15:47.058Z,78.45
2023-03-03T08:20:46.947Z,76.47
2023-03-03T08:25:46.834Z,75.95
2023-03-03T08:30:46.882Z,74.95
2023-03-03T08:35:47.498Z,76.09
2023-03-03T08:40:46.589Z,76.75
2023-03-03T08:45:46.480Z,76.26
2023-03-03T08:50:46.520Z,76.20
2023-03-03T08:55:46.359Z,77.65
2023-03-03T09:00:56.613Z,76.02
2023-03-03T09:05:53.231Z,76.16
2023-03-03T09:10:46.211Z,75.60
2023-03-03T09:15:46.092Z,75.19
2023-03-03T09:20:46.516Z,73.83
2023-03-03T09:25:45.957Z,72.66
2023-03-03T09:30:45.937Z,72.07
2023-03-03T09:35:46.892Z,72.76
2023-03-03T09:40:46.218Z,73.52
2023-03-03T09:45:45.713Z,75.12
2023-03-03T09:50:45.747Z,72.20
2023-03-03T09:55:45.741Z,71.51
2023-03-03T10:00:48.577Z,71.38
2023-03-03T10:05:45.458Z,70.86
2023-03-03T10:10:45.424Z,73.80
2023-03-03T10:15:45.437Z,71.97
2023-03-03T10:20:50.641Z,69.42
2023-03-03T10:25:46.374Z,66.47
2023-03-03T10:30:58.508Z,67.17
2023-03-03T10:36:00.951Z,68.69
2023-03-03T10:40:46.096Z,72.38
2023-03-03T10:45:45.004Z,71.83
2023-03-03T10:50:44.850Z,70.10
2023-03-03T10:55:44.801Z,70.31
2023-03-03T11:00:47.893Z,71.10
2023-03-03T11:05:44.687Z,69.86
2023-03-03T11:10:44.688Z,67.24
2023-03-03T11:15:44.547Z,65.56
2023-03-03T11:20:44.488Z,64.43
2023-03-03T11:25:44.437Z,65.63
2023-03-03T11:30:44.436Z,70.37
2023-03-03T11:35:44.430Z,67.30
2023-03-03T11:40:44.271Z,65.72
2023-03-03T11:45:44.144Z,64.28
2023-03-03T11:50:44.213Z,64.36
2023-03-03T11:55:44.017Z,63.89
2023-03-03T12:00:47.004Z,62.93
2023-03-03T12:05:43.963Z,64.40
2023-03-03T12:10:43.870Z,62.23
2023-03-03T12:15:43.734Z,63.71
2023-03-03T12:20:43.701Z,62.67
2023-03-03T12:25:43.672Z,65.91
2023-03-03T12:30:43.698Z,62.95
2023-03-03T12:35:43.574Z,66.08
2023-03-03T12:40:43.627Z,63.40
2023-03-03T12:45:43.419Z,63.76
2023-03-03T12:50:43.390Z,63.64
2023-03-03T12:55:43.328Z,63.22
2023-03-03T13:00:46.389Z,62.91
2023-03-03T13:05:45.643Z,64.11
2023-03-03T13:10:43.168Z,64.15
2023-03-03T13:15:54.843Z,63.37
2023-03-03T13:20:44.026Z,65.19
2023-03-03T13:25:43.028Z,65.19
2023-03-03T13:30:42.897Z,66.11
2023-03-03T13:35:42.878Z,67.38
2023-03-03T13:40:42.781Z,67.17
2023-03-03T13:45:42.720Z,67.52
2023-03-03T13:50:42.686Z,63.95
2023-03-03T13:55:42.532Z,63.22
2023-03-03T14:00:45.659Z,65.53
2023-03-03T14:05:42.389Z,64.61
2023-03-03T14:10:42.629Z,62.34
2023-03-03T14:15:42.239Z,62.62
2023-03-03T14:20:42.317Z,62.17
2023-03-03T14:25:42.176Z,62.04
2023-03-03T14:30:42.123Z,62.72
2023-03-03T14:35:42.060Z,62.69
2023-03-03T14:40:41.943Z,62.30
2023-03-03T14:45:41.853Z,64.43
2023-03-03T14:50:49.242Z,64.39
2023-03-03T14:55:48.702Z,62.93
2023-03-03T15:00:52.695Z,61.66
2023-03-03T15:05:41.688Z,64.36
2023-03-03T15:10:41.629Z,66.05
2023-03-03T15:15:41.571Z,64.87
2023-03-03T15:20:41.485Z,65.63
2023-03-03T15:25:43.796Z,65.19
2023-03-03T15:30:41.351Z,66.12
2023-03-03T15:35:41.288Z,65.22
2023-03-03T15:40:41.355Z,66.09
2023-03-03T15:45:41.162Z,65.91
2023-03-03T15:50:41.255Z,64.30
2023-03-03T15:55:41.099Z,64.30
2023-03-03T16:00:43.956Z,63.72
2023-03-03T16:05:40.730Z,65.16
2023-03-03T16:10:40.773Z,65.16
2023-03-03T16:15:40.740Z,64.40
2023-03-03T16:20:41.391Z,64.17
2023-03-03T16:25:40.461Z,64.64
2023-03-03T16:30:40.537Z,64.51
2023-03-03T16:35:40.369Z,64.40
2023-03-03T16:40:40.425Z,65.70
2023-03-03T16:45:40.266Z,66.18
2023-03-03T16:50:40.245Z,66.35
2023-03-03T16:55:40.114Z,66.56
2023-03-03T17:00:43.209Z,67.49
2023-03-03T17:05:39.975Z,67.60
2023-03-03T17:10:39.950Z,66.74
2023-03-03T17:15:39.881Z,66.63
2023-03-03T17:20:39.839Z,66.84
2023-03-03T17:25:39.677Z,66.22
2023-03-03T17:30:39.773Z,66.63
2023-03-03T17:35:39.575Z,66.53
2023-03-03T17:40:39.492Z,66.02
2023-03-03T17:45:39.447Z,66.56
2023-03-03T17:50:39.482Z,66.97
2023-03-03T17:55:39.348Z,66.87
2023-03-03T18:00:42.390Z,66.97
2023-03-03T18:05:39.199Z,68.80
2023-03-03T18:10:39.857Z,67.97
2023-03-03T18:15:39.225Z,67.08
2023-03-03T18:20:39.014Z,66.74
2023-03-03T18:25:38.890Z,66.42
2023-03-03T18:30:38.937Z,67.70
2023-03-03T18:35:38.871Z,67.94
2023-03-03T18:40:38.926Z,67.49
2023-03-03T18:45:38.676Z,67.60
2023-03-03T18:50:38.643Z,67.52
2023-03-03T18:55:38.825Z,68.28
2023-03-03T19:00:41.564Z,68.04
2023-03-03T19:05:38.383Z,69.97
2023-03-03T19:10:38.468Z,68.70
2023-03-03T19:15:38.284Z,68.04
2023-03-03T19:20:38.392Z,67.29
2023-03-03T19:25:38.086Z,69.35
2023-03-03T19:30:38.165Z,68.28
2023-03-03T19:35:38.062Z,67.80
2023-03-03T19:40:39.301Z,67.52
2023-03-03T19:45:37.862Z,67.63
2023-03-03T19:50:38.051Z,67.94
2023-03-03T19:55:37.714Z,68.80
2023-03-03T20:00:40.803Z,68.80
2023-03-03T20:05:37.653Z,70.07
2023-03-03T20:10:37.699Z,68.70
2023-03-03T20:15:37.522Z,69.14
2023-03-03T20:20:37.444Z,68.59
2023-03-03T20:25:37.522Z,69.11
2023-03-03T20:30:37.320Z,68.87
2023-03-03T20:35:45.245Z,69.66
2023-03-03T20:40:44.148Z,68.01
2023-03-03T20:45:45.895Z,66.87
2023-03-03T20:50:37.096Z,68.15
2023-03-03T20:55:36.997Z,68.49
2023-03-03T21:00:40.048Z,68.28
2023-03-03T21:05:36.817Z,70.73
2023-03-03T21:10:36.986Z,69.87
2023-03-03T21:15:36.679Z,69.42
2023-03-03T21:20:36.904Z,69.42
2023-03-03T21:25:36.538Z,69.01
2023-03-03T21:30:36.539Z,70.07
2023-03-03T21:35:37.286Z,70.36
2023-03-03T21:40:36.555Z,70.04
2023-03-03T21:45:36.383Z,69.32
2023-03-03T21:50:36.698Z,70.59
2023-03-03T21:55:36.181Z,69.70
2023-03-03T22:00:39.248Z,71.11
2023-03-03T22:05:36.022Z,71.77
2023-03-03T22:10:36.038Z,70.63
2023-03-03T22:15:35.959Z,71.28
2023-03-03T22:20:35.871Z,72.15
2023-03-03T22:25:35.748Z,72.15
2023-03-03T22:30:35.826Z,73.15
2023-03-03T22:35:35.692Z,74.11
2023-03-03T22:40:35.637Z,72.84
2023-03-03T22:45:35.515Z,73.94
2023-03-03T22:50:35.502Z,71.11
2023-03-03T22:55:35.369Z,71.28
2023-03-03T23:00:38.466Z,71.53
2023-03-03T23:05:35.333Z,73.39
2023-03-03T23:10:35.315Z,73.01
2023-03-03T23:15:35.093Z,72.28
2023-03-03T23:20:35.174Z,73.05
2023-03-03T23:25:35.091Z,71.53
2023-03-03T23:30:34.959Z,71.87
2023-03-03T23:35:34.896Z,70.97
2023-03-03T23:40:34.875Z,70.15
2023-03-03T23:45:34.711Z,70.11
2023-03-03T23:50:34.707Z,70.97
2023-03-03T23:55:34.617Z,70.21
